Time,TemperatureF,DewpointF,PressureIn,WindDirection,WindDirectionDegrees,WindSpeedMPH,WindSpeedGustMPH,Humidity,HourlyPrecipIn,Conditions,Clouds,dailyrainin,SoftwareType,DateUTC
2013-02-23 00:02:00,40.4,39.9,30.04,NE,34,0.0,0.0,98,0.00,,,0.78,Wunderground v.1.15,2013-02-23 05:02:00,
2013-02-23 00:12:00,40.5,40.0,30.03,NE,34,0.0,0.0,98,0.00,,,0.00,Wunderground v.1.15,2013-02-23 05:12:00,
2013-02-23 00:22:00,40.5,40.0,30.03,NE,34,1.0,1.0,98,0.00,,,0.00,Wunderground v.1.15,2013-02-23 05:22:00,
2013-02-23 00:52:00,40.3,39.8,30.03,NNE,33,1.0,1.0,98,0.00,,,0.02,Wunderground v.1.15,2013-02-23 05:52:00,
2013-02-23 01:02:00,40.1,39.6,30.03,NNE,19,1.0,1.0,98,0.00,,,0.02,Wunderground v.1.15,2013-02-23 06:02:00,
2013-02-23 01:12:00,40.1,39.6,30.02,NNE,15,1.0,1.0,98,0.00,,,0.02,Wunderground v.1.15,2013-02-23 06:12:00,
2013-02-23 01:22:00,39.9,39.4,30.01,North,360,1.0,1.0,98,0.00,,,0.02,Wunderground v.1.15,2013-02-23 06:22:00,
2013-02-23 01:32:00,39.8,39.3,30.01,North,360,2.0,2.0,98,0.00,,,0.02,Wunderground v.1.15,2013-02-23 06:32:00,
2013-02-23 01:42:00,39.8,39.3,30.00,North,5,1.0,1.0,98,0.00,,,0.02,Wunderground v.1.15,2013-02-23 06:42:00,
2013-02-23 01:52:00,39.7,39.2,29.99,NW,319,0.0,0.0,98,0.00,,,0.02,Wunderground v.1.15,2013-02-23 06:52:00,
2013-02-23 02:02:00,39.7,39.2,29.99,NW,321,0.0,0.0,98,0.00,,,0.02,Wunderground v.1.15,2013-02-23 07:02:00,
2013-02-23 02:12:00,39.7,39.2,29.97,NW,322,0.0,1.0,98,0.00,,,0.02,Wunderground v.1.15,2013-02-23 07:12:00,
2013-02-23 02:22:00,39.7,39.4,29.95,NW,322,0.0,0.0,99,0.00,,,0.02,Wunderground v.1.15,2013-02-23 07:22:00,
2013-02-23 02:32:00,39.7,39.4,29.95,NW,323,0.0,1.0,99,0.00,,,0.03,Wunderground v.1.15,2013-02-23 07:32:00,
2013-02-23 02:42:00,39.8,39.5,29.94,North,355,1.0,1.0,99,0.13,,,0.05,Wunderground v.1.15,2013-02-23 07:42:00,
2013-02-23 02:52:00,39.7,39.4,29.93,North,349,0.0,0.0,99,0.13,,,0.07,Wunderground v.1.15,2013-02-23 07:52:00,
2013-02-23 03:01:00,39.7,39.4,29.93,NE,46,0.0,0.0,99,0.12,,,0.09,Wunderground v.1.15,2013-02-23 08:01:00,
2013-02-23 03:11:00,39.7,39.4,29.92,NE,45,0.0,0.0,99,0.19,,,0.11,Wunderground v.1.15,2013-02-23 08:11:00,
2013-02-23 03:22:00,39.7,39.4,29.92,NE,45,0.0,0.0,99,0.12,,,0.13,Wunderground v.1.15,2013-02-23 08:22:00,
2013-02-23 03:33:00,39.7,39.4,29.92,NE,43,0.0,0.0,99,0.05,,,0.13,Wunderground v.1.15,2013-02-23 08:33:00,
2013-02-23 03:43:00,39.7,39.4,29.91,NE,42,0.0,0.0,99,0.17,,,0.16,Wunderground v.1.15,2013-02-23 08:43:00,
2013-02-23 03:53:00,39.8,39.5,29.91,NE,42,0.0,0.0,99,0.06,,,0.16,Wunderground v.1.15,2013-02-23 08:53:00,
2013-02-23 04:02:00,39.8,39.5,29.91,NE,42,0.0,1.0,99,0.00,,,0.16,Wunderground v.1.15,2013-02-23 09:02:00,
2013-02-23 04:12:00,39.9,39.6,29.89,NE,46,0.0,0.0,99,0.07,,,0.18,Wunderground v.1.15,2013-02-23 09:12:00,
2013-02-23 04:22:00,39.9,39.6,29.92,NE,46,1.0,1.0,99,0.09,,,0.19,Wunderground v.1.15,2013-02-23 09:22:00,
2013-02-23 04:33:00,39.9,39.6,29.92,NE,39,0.0,0.0,99,0.04,,,0.19,Wunderground v.1.15,2013-02-23 09:33:00,
2013-02-23 04:43:00,39.8,39.5,29.91,NE,39,0.0,0.0,99,0.13,,,0.21,Wunderground v.1.15,2013-02-23 09:43:00,
2013-02-23 04:52:00,39.7,39.2,29.91,NE,39,0.0,0.0,98,0.14,,,0.23,Wunderground v.1.15,2013-02-23 09:52:00,
2013-02-23 05:02:00,39.7,39.2,29.91,NE,39,0.0,0.0,98,0.12,,,0.25,Wunderground v.1.15,2013-02-23 10:02:00,
2013-02-23 05:12:00,39.7,39.2,29.91,NE,39,0.0,0.0,98,0.21,,,0.29,Wunderground v.1.15,2013-02-23 10:12:00,
2013-02-23 05:32:00,39.6,39.3,29.90,NE,38,0.0,1.0,99,0.15,,,0.33,Wunderground v.1.15,2013-02-23 10:32:00,
2013-02-23 05:42:00,39.6,39.3,29.91,NE,38,0.0,0.0,99,0.14,,,0.35,Wunderground v.1.15,2013-02-23 10:42:00,
2013-02-23 05:52:00,39.6,39.3,29.89,NE,39,1.0,1.0,99,0.13,,,0.38,Wunderground v.1.15,2013-02-23 10:52:00,
2013-02-23 06:02:00,39.5,39.2,29.89,NNE,32,1.0,1.0,99,0.08,,,0.40,Wunderground v.1.15,2013-02-23 11:02:00,
2013-02-23 06:12:00,39.6,39.3,29.89,NNE,14,1.0,1.0,99,0.09,,,0.41,Wunderground v.1.15,2013-02-23 11:12:00,
2013-02-23 06:22:00,39.6,39.3,29.91,North,360,1.0,1.0,99,0.05,,,0.42,Wunderground v.1.15,2013-02-23 11:22:00,
2013-02-23 06:32:00,39.5,39.2,29.91,East,84,1.0,3.0,99,0.92,,,0.48,Wunderground v.1.15,2013-02-23 11:32:00,
2013-02-23 06:42:00,39.5,39.2,29.88,East,93,1.0,2.0,99,0.08,,,0.50,Wunderground v.1.15,2013-02-23 11:42:00,
2013-02-23 06:52:00,39.7,39.4,29.92,SE,138,2.0,3.0,99,0.15,,,0.52,Wunderground v.1.15,2013-02-23 11:52:00,
2013-02-23 07:02:00,39.7,39.4,29.92,East,92,2.0,2.0,99,0.11,,,0.55,Wunderground v.1.15,2013-02-23 12:02:00,
2013-02-23 07:12:00,39.8,39.5,29.94,East,92,1.0,1.0,99,0.04,,,0.55,Wunderground v.1.15,2013-02-23 12:12:00,
2013-02-23 07:22:00,40.0,39.7,29.93,East,92,0.0,0.0,99,0.00,,,0.55,Wunderground v.1.15,2013-02-23 12:22:00,
2013-02-23 07:42:00,39.9,39.6,29.92,East,92,0.0,0.0,99,0.00,,,0.56,Wunderground v.1.15,2013-02-23 12:42:00,
2013-02-23 07:52:00,39.9,39.6,29.91,East,92,0.0,0.0,99,0.00,,,0.56,Wunderground v.1.15,2013-02-23 12:52:00,
2013-02-23 08:02:00,40.0,39.7,29.91,East,92,0.0,0.0,99,0.00,,,0.57,Wunderground v.1.15,2013-02-23 13:02:00,
2013-02-23 08:12:00,40.2,39.9,29.90,East,91,0.0,1.0,99,0.00,,,0.57,Wunderground v.1.15,2013-02-23 13:12:00,
2013-02-23 08:22:00,40.5,40.2,29.91,East,91,0.0,0.0,99,0.00,,,0.57,Wunderground v.1.15,2013-02-23 13:22:00,
2013-02-23 08:32:00,40.7,40.4,29.91,East,91,0.0,0.0,99,0.00,,,0.57,Wunderground v.1.15,2013-02-23 13:32:00,
2013-02-23 08:42:00,41.1,40.8,29.91,East,91,0.0,1.0,99,0.00,,,0.57,Wunderground v.1.15,2013-02-23 13:42:00,
2013-02-23 08:52:00,41.3,41.0,29.90,East,91,0.0,0.0,99,0.00,,,0.57,Wunderground v.1.15,2013-02-23 13:52:00,
2013-02-23 09:02:00,41.5,41.2,29.90,East,91,0.0,0.0,99,0.00,,,0.57,Wunderground v.1.15,2013-02-23 14:02:00,
2013-02-23 09:12:00,41.7,41.4,29.89,East,91,0.0,0.0,99,0.00,,,0.57,Wunderground v.1.15,2013-02-23 14:12:00,
2013-02-23 09:22:00,41.7,41.4,29.89,East,89,0.0,0.0,99,0.00,,,0.57,Wunderground v.1.15,2013-02-23 14:22:00,
2013-02-23 09:32:00,41.9,41.6,29.89,East,89,0.0,0.0,99,0.00,,,0.57,Wunderground v.1.15,2013-02-23 14:32:00,
2013-02-23 09:42:00,41.9,41.6,29.91,East,89,0.0,0.0,99,0.00,,,0.57,Wunderground v.1.15,2013-02-23 14:42:00,
2013-02-23 09:52:00,42.3,42.0,29.90,East,89,0.0,0.0,99,0.00,,,0.57,Wunderground v.1.15,2013-02-23 14:52:00,
2013-02-23 10:02:00,42.3,42.0,29.90,East,89,0.0,0.0,99,0.00,,,0.57,Wunderground v.1.15,2013-02-23 15:02:00,
2013-02-23 10:12:00,42.4,42.1,29.91,East,89,0.0,0.0,99,0.00,,,0.57,Wunderground v.1.15,2013-02-23 15:12:00,
2013-02-23 10:22:00,42.4,42.1,29.91,East,89,0.0,0.0,99,0.00,,,0.57,Wunderground v.1.15,2013-02-23 15:22:00,
2013-02-23 10:32:00,42.5,42.2,29.91,East,89,0.0,2.0,99,0.00,,,0.57,Wunderground v.1.15,2013-02-23 15:32:00,
2013-02-23 10:43:00,43.0,42.7,29.87,East,89,0.0,0.0,99,0.00,,,0.57,Wunderground v.1.15,2013-02-23 15:43:00,
2013-02-23 10:52:00,43.2,42.9,29.88,North,11,0.0,0.0,99,0.00,,,0.57,Wunderground v.1.15,2013-02-23 15:52:00,
2013-02-23 11:02:00,43.5,43.2,29.88,North,351,1.0,1.0,99,0.00,,,0.57,Wunderground v.1.15,2013-02-23 16:02:00,
2013-02-23 11:12:00,43.3,43.0,29.90,NNW,348,1.0,1.0,99,0.00,,,0.57,Wunderground v.1.15,2013-02-23 16:12:00,
2013-02-23 11:22:00,43.5,43.2,29.90,NNW,348,0.0,0.0,99,0.00,,,0.57,Wunderground v.1.15,2013-02-23 16:22:00,
2013-02-23 11:32:00,43.6,43.3,29.90,NNW,347,0.0,1.0,99,0.00,,,0.57,Wunderground v.1.15,2013-02-23 16:32:00,
2013-02-23 11:42:00,43.7,43.4,29.91,NNW,347,0.0,1.0,99,0.00,,,0.57,Wunderground v.1.15,2013-02-23 16:42:00,
2013-02-23 11:52:00,43.8,43.5,29.90,NNW,347,0.0,0.0,99,0.00,,,0.57,Wunderground v.1.15,2013-02-23 16:52:00,
2013-02-23 12:02:00,43.8,43.5,29.90,NNW,347,0.0,0.0,99,0.00,,,0.57,Wunderground v.1.15,2013-02-23 17:02:00,
2013-02-23 12:12:00,43.9,43.6,29.89,NNW,339,1.0,1.0,99,0.00,,,0.57,Wunderground v.1.15,2013-02-23 17:12:00,
2013-02-23 12:22:00,44.1,43.8,29.91,NNW,339,0.0,0.0,99,0.00,,,0.57,Wunderground v.1.15,2013-02-23 17:22:00,
2013-02-23 12:32:00,44.1,43.8,29.91,NNW,339,0.0,0.0,99,0.00,,,0.57,Wunderground v.1.15,2013-02-23 17:32:00,
2013-02-23 12:42:00,44.1,43.8,29.89,NNW,339,0.0,0.0,99,0.00,,,0.57,Wunderground v.1.15,2013-02-23 17:42:00,
2013-02-23 12:52:00,44.2,43.9,29.89,NNW,338,0.0,4.0,99,0.00,,,0.57,Wunderground v.1.15,2013-02-23 17:52:00,
2013-02-23 13:02:00,44.3,44.0,29.89,NNW,338,0.0,0.0,99,0.00,,,0.58,Wunderground v.1.15,2013-02-23 18:02:00,
2013-02-23 13:12:00,44.5,44.2,29.88,NNE,15,1.0,1.0,99,0.00,,,0.58,Wunderground v.1.15,2013-02-23 18:12:00,
2013-02-23 13:22:00,44.6,44.3,29.87,North,5,1.0,1.0,99,0.00,,,0.58,Wunderground v.1.15,2013-02-23 18:22:00,
2013-02-23 13:32:00,44.6,44.3,29.87,North,5,0.0,0.0,99,0.00,,,0.58,Wunderground v.1.15,2013-02-23 18:32:00,
2013-02-23 13:42:00,44.6,44.3,29.88,North,5,0.0,0.0,99,0.00,,,0.58,Wunderground v.1.15,2013-02-23 18:42:00,
2013-02-23 13:52:00,44.6,44.3,29.86,North,5,1.0,1.0,99,0.00,,,0.58,Wunderground v.1.15,2013-02-23 18:52:00,
2013-02-23 14:02:00,44.6,44.3,29.86,North,5,0.0,0.0,99,0.00,,,0.58,Wunderground v.1.15,2013-02-23 19:02:00,
2013-02-23 14:12:00,44.7,44.4,29.85,North,5,0.0,0.0,99,0.00,,,0.58,Wunderground v.1.15,2013-02-23 19:12:00,
2013-02-23 14:22:00,44.9,44.6,29.84,North,5,0.0,0.0,99,0.00,,,0.58,Wunderground v.1.15,2013-02-23 19:22:00,
2013-02-23 14:32:00,45.1,44.8,29.84,North,5,0.0,0.0,99,0.00,,,0.58,Wunderground v.1.15,2013-02-23 19:32:00,
2013-02-23 14:42:00,45.1,44.8,29.84,North,5,0.0,0.0,99,0.00,,,0.58,Wunderground v.1.15,2013-02-23 19:42:00,
2013-02-23 14:52:00,45.0,44.7,29.85,North,360,0.0,0.0,99,0.00,,,0.58,Wunderground v.1.15,2013-02-23 19:52:00,
2013-02-23 15:02:00,45.2,44.9,29.85,North,360,0.0,0.0,99,0.00,,,0.58,Wunderground v.1.15,2013-02-23 20:02:00,
2013-02-23 15:12:00,45.1,44.8,29.83,North,360,0.0,0.0,99,0.00,,,0.58,Wunderground v.1.15,2013-02-23 20:12:00,
2013-02-23 15:23:00,45.2,44.9,29.84,North,360,0.0,0.0,99,0.00,,,0.58,Wunderground v.1.15,2013-02-23 20:23:00,
2013-02-23 15:33:00,45.3,45.0,29.84,North,360,0.0,0.0,99,0.00,,,0.58,Wunderground v.1.15,2013-02-23 20:33:00,
2013-02-23 15:43:00,45.4,45.1,29.83,North,360,0.0,0.0,99,0.00,,,0.58,Wunderground v.1.15,2013-02-23 20:43:00,
2013-02-23 15:53:00,45.5,45.2,29.85,North,360,0.0,0.0,99,0.00,,,0.58,Wunderground v.1.15,2013-02-23 20:53:00,
2013-02-23 16:02:00,45.6,45.3,29.85,North,360,0.0,0.0,99,0.00,,,0.58,Wunderground v.1.15,2013-02-23 21:02:00,
2013-02-23 16:12:00,45.7,45.4,29.83,NNW,346,1.0,1.0,99,0.00,,,0.58,Wunderground v.1.15,2013-02-23 21:12:00,
2013-02-23 16:22:00,45.6,45.3,29.82,NNW,348,0.0,1.0,99,0.00,,,0.58,Wunderground v.1.15,2013-02-23 21:22:00,
2013-02-23 16:32:00,45.6,45.3,29.82,NNE,32,1.0,1.0,99,0.00,,,0.58,Wunderground v.1.15,2013-02-23 21:32:00,
2013-02-23 16:42:00,45.4,45.1,29.83,North,9,1.0,1.0,99,0.00,,,0.58,Wunderground v.1.15,2013-02-23 21:42:00,
2013-02-23 16:52:00,45.5,45.2,29.83,North,9,0.0,0.0,99,0.00,,,0.58,Wunderground v.1.15,2013-02-23 21:52:00,
2013-02-23 17:02:00,45.6,45.3,29.83,North,5,0.0,0.0,99,0.00,,,0.58,Wunderground v.1.15,2013-02-23 22:02:00,
2013-02-23 17:12:00,45.6,45.3,29.83,North,10,0.0,1.0,99,0.00,,,0.58,Wunderground v.1.15,2013-02-23 22:12:00,
2013-02-23 17:22:00,45.5,45.2,29.83,North,10,0.0,0.0,99,0.00,,,0.58,Wunderground v.1.15,2013-02-23 22:22:00,
2013-02-23 17:32:00,45.6,45.3,29.83,North,10,0.0,0.0,99,0.00,,,0.58,Wunderground v.1.15,2013-02-23 22:32:00,
2013-02-23 17:42:00,45.6,45.3,29.82,North,10,0.0,0.0,99,0.00,,,0.58,Wunderground v.1.15,2013-02-23 22:42:00,
2013-02-23 17:52:00,45.5,45.2,29.79,North,10,0.0,0.0,99,0.00,,,0.58,Wunderground v.1.15,2013-02-23 22:52:00,
2013-02-23 18:02:00,45.4,45.1,29.79,North,10,0.0,2.0,99,0.00,,,0.58,Wunderground v.1.15,2013-02-23 23:02:00,
2013-02-23 18:12:00,45.4,45.1,29.80,North,5,1.0,1.0,99,0.00,,,0.58,Wunderground v.1.15,2013-02-23 23:12:00,
2013-02-23 18:22:00,45.4,45.1,29.83,North,360,0.0,0.0,99,0.00,,,0.58,Wunderground v.1.15,2013-02-23 23:22:00,
2013-02-23 18:32:00,45.4,45.1,29.83,North,360,0.0,1.0,99,0.00,,,0.58,Wunderground v.1.15,2013-02-23 23:32:00,
2013-02-23 18:42:00,45.3,45.0,29.84,North,355,0.0,0.0,99,0.00,,,0.58,Wunderground v.1.15,2013-02-23 23:42:00,
2013-02-23 18:52:00,45.3,45.0,29.85,North,355,0.0,0.0,99,0.00,,,0.58,Wunderground v.1.15,2013-02-23 23:52:00,
2013-02-23 19:02:00,45.2,44.9,29.85,North,355,0.0,0.0,99,0.00,,,0.58,Wunderground v.1.15,2013-02-24 00:02:00,
2013-02-23 19:12:00,45.2,44.9,29.84,North,355,0.0,0.0,99,0.00,,,0.58,Wunderground v.1.15,2013-02-24 00:12:00,
2013-02-23 19:22:00,45.1,44.8,29.83,NE,49,1.0,1.0,99,0.00,,,0.58,Wunderground v.1.15,2013-02-24 00:22:00,
2013-02-23 19:32:00,45.1,44.8,29.83,ENE,61,1.0,1.0,99,0.00,,,0.58,Wunderground v.1.15,2013-02-24 00:32:00,
2013-02-23 19:42:00,45.1,44.8,29.84,NE,51,0.0,0.0,99,0.00,,,0.58,Wunderground v.1.15,2013-02-24 00:42:00,
2013-02-23 19:52:00,45.2,44.9,29.86,NE,51,0.0,0.0,99,0.00,,,0.58,Wunderground v.1.15,2013-02-24 00:52:00,
2013-02-23 20:02:00,45.2,44.9,29.86,NE,51,0.0,0.0,99,0.00,,,0.58,Wunderground v.1.15,2013-02-24 01:02:00,
2013-02-23 20:12:00,45.3,45.0,29.87,NE,51,0.0,0.0,99,0.00,,,0.58,Wunderground v.1.15,2013-02-24 01:12:00,
2013-02-23 20:22:00,45.4,45.1,29.88,NE,51,0.0,0.0,99,0.00,,,0.58,Wunderground v.1.15,2013-02-24 01:22:00,
2013-02-23 20:32:00,45.4,45.1,29.88,NE,54,0.0,0.0,99,0.00,,,0.58,Wunderground v.1.15,2013-02-24 01:32:00,
2013-02-23 20:42:00,45.4,45.1,29.86,NE,54,0.0,1.0,99,0.00,,,0.58,Wunderground v.1.15,2013-02-24 01:42:00,
2013-02-23 20:52:00,45.3,45.0,29.82,ENE,74,1.0,1.0,99,0.00,,,0.58,Wunderground v.1.15,2013-02-24 01:52:00,
2013-02-23 21:01:00,45.3,45.0,29.82,ENE,74,0.0,1.0,99,0.00,,,0.58,Wunderground v.1.15,2013-02-24 02:01:00,
2013-02-23 21:12:00,45.4,45.1,29.81,ENE,78,1.0,3.0,99,0.00,,,0.58,Wunderground v.1.15,2013-02-24 02:12:00,
2013-02-23 21:23:00,45.4,45.1,29.83,East,80,0.0,2.0,99,0.00,,,0.58,Wunderground v.1.15,2013-02-24 02:23:00,
2013-02-23 21:33:00,45.4,45.1,29.83,East,80,0.0,0.0,99,0.00,,,0.58,Wunderground v.1.15,2013-02-24 02:33:00,
2013-02-23 21:43:00,45.4,45.1,29.82,East,80,0.0,0.0,99,0.00,,,0.58,Wunderground v.1.15,2013-02-24 02:43:00,
2013-02-23 21:53:00,45.5,45.2,29.81,East,80,0.0,0.0,99,0.00,,,0.58,Wunderground v.1.15,2013-02-24 02:53:00,
2013-02-23 22:02:00,45.5,45.2,29.81,East,80,0.0,0.0,99,0.00,,,0.58,Wunderground v.1.15,2013-02-24 03:02:00,
2013-02-23 22:12:00,45.5,45.2,29.80,East,80,0.0,0.0,99,0.00,,,0.58,Wunderground v.1.15,2013-02-24 03:12:00,
2013-02-23 22:23:00,45.5,45.2,29.81,East,80,0.0,0.0,99,0.00,,,0.58,Wunderground v.1.15,2013-02-24 03:23:00,
2013-02-23 22:33:00,45.6,45.3,29.81,East,80,0.0,0.0,99,0.00,,,0.58,Wunderground v.1.15,2013-02-24 03:33:00,
2013-02-23 22:42:00,45.6,45.3,29.82,East,80,0.0,1.0,99,0.00,,,0.58,Wunderground v.1.15,2013-02-24 03:42:00,
2013-02-23 22:52:00,45.6,45.3,29.82,ENE,78,0.0,0.0,99,0.00,,,0.58,Wunderground v.1.15,2013-02-24 03:52:00,
2013-02-23 23:02:00,45.6,45.3,29.82,NE,42,1.0,1.0,99,0.00,,,0.58,Wunderground v.1.15,2013-02-24 04:02:00,
2013-02-23 23:12:00,45.5,45.2,29.83,NE,40,0.0,0.0,99,0.00,,,0.58,Wunderground v.1.15,2013-02-24 04:12:00,
2013-02-23 23:22:00,45.4,45.1,29.83,North,349,0.0,2.0,99,0.00,,,0.58,Wunderground v.1.15,2013-02-24 04:22:00,
2013-02-23 23:32:00,45.2,44.9,29.83,NNW,344,1.0,1.0,99,0.00,,,0.58,Wunderground v.1.15,2013-02-24 04:32:00,
2013-02-23 23:42:00,45.3,45.0,29.83,NW,322,0.0,2.0,99,0.00,,,0.58,Wunderground v.1.15,2013-02-24 04:42:00,
2013-02-23 23:52:00,45.2,44.9,29.83,NW,322,0.0,0.0,99,0.00,,,0.58,Wunderground v.1.15,2013-02-24 04:52:00,